Time;durP1;ratioP1;P1;durP2;ratioP2;P2;SDS_P1;SDS_P2;PMS_P1;PMS_P2;Temp;Humidity;BMP_temperature;BMP_pressure;BME280_temperature;BME280_humidity;BME280_pressure;Samples;Min_cycle;Max_cycle;Signal;HPM_P1;HPM_P2
2022/08/13 00:00:11;;;;;;;6.82;4.28;;;;;;;22.35;67.09;101778.53;5003479;28;20026;-64
2022/08/13 00:02:43;;;;;;;9.55;4.10;;;;;;;22.42;66.79;101776.28;5004852;28;20025;-63
2022/08/13 00:05:09;;;;;;;7.05;3.83;;;;;;;22.40;66.32;101776.41;5005015;28;20033;-62
2022/08/13 00:07:35;;;;;;;9.65;4.22;;;;;;;22.36;65.33;101774.03;5004824;28;20018;-62
2022/08/13 00:10:02;;;;;;;5.50;4.38;;;;;;;22.31;65.17;101769.00;5005080;28;20026;-63
2022/08/13 00:15:28;;;;;;;12.88;4.22;;;;;;;22.24;65.96;101771.22;5003722;28;20088;-62
2022/08/13 00:17:57;;;;;;;6.82;3.97;;;;;;;22.21;65.59;101772.31;5002632;28;20565;-63
2022/08/13 00:20:25;;;;;;;6.13;4.00;;;;;;;22.16;64.99;101769.09;5004430;28;20021;-62
2022/08/13 00:22:50;;;;;;;5.10;3.87;;;;;;;22.16;65.00;101768.22;5003901;28;20052;-63
2022/08/13 00:25:16;;;;;;;6.90;3.53;;;;;;;22.19;64.93;101771.53;5004540;28;20830;-63
2022/08/13 00:27:47;;;;;;;4.13;3.35;;;;;;;22.18;64.63;101775.19;5004738;28;20506;-63
2022/08/13 00:30:15;;;;;;;6.75;3.72;;;;;;;22.10;64.83;101785.63;5002972;28;20100;-61
2022/08/13 00:32:42;;;;;;;9.93;3.60;;;;;;;22.11;64.06;101775.72;5004118;28;20484;-63
2022/08/13 00:35:08;;;;;;;5.45;3.15;;;;;;;22.08;64.59;101772.28;5007185;28;20300;-64
2022/08/13 00:37:37;;;;;;;4.43;3.47;;;;;;;22.10;64.23;101774.88;5008226;28;20057;-63
2022/08/13 00:40:04;;;;;;;;;;;;;;;22.08;63.43;101776.78;5007833;28;20100;-63
2022/08/13 00:42:29;;;;;;;7.18;3.25;;;;;;;22.07;64.03;101769.72;5008705;28;20403;-63
2022/08/13 00:44:55;;;;;;;5.03;3.50;;;;;;;22.01;63.29;101779.06;5006676;28;20057;-64
2022/08/13 00:50:05;;;;;;;4.53;3.28;;;;;;;22.03;62.81;101778.94;5008191;28;20091;-65
2022/08/13 00:52:34;;;;;;;5.28;3.30;;;;;;;22.04;62.56;101777.97;5008487;28;20033;-64
2022/08/13 00:55:02;;;;;;;5.82;3.20;;;;;;;22.02;62.10;101771.84;4991067;28;20030;-64
2022/08/13 00:57:31;;;;;;;5.43;3.22;;;;;;;22.03;61.39;101773.59;5008167;28;20087;-64
2022/08/13 00:59:57;;;;;;;3.83;3.17;;;;;;;21.99;61.96;101775.59;5007846;28;20388;-63
2022/08/13 01:02:24;;;;;;;7.88;2.95;;;;;;;22.00;61.16;101779.16;4992934;23;20116;-63
2022/08/13 01:04:50;;;;;;;3.42;3.03;;;;;;;21.99;61.33;101777.41;4968837;28;20030;-62
2022/08/13 01:07:18;;;;;;;9.82;3.40;;;;;;;21.89;61.89;101777.19;4967423;28;20023;-62
2022/08/13 01:09:43;;;;;;;8.75;3.40;;;;;;;21.83;61.71;101784.69;4968593;28;20038;-62
2022/08/13 01:12:09;;;;;;;3.80;3.42;;;;;;;21.77;61.46;101769.03;4967892;28;20031;-62
2022/08/13 01:14:36;;;;;;;4.38;3.10;;;;;;;21.71;61.08;101766.72;4968326;28;20023;-62
2022/08/13 01:17:03;;;;;;;5.43;3.30;;;;;;;21.68;61.29;101770.47;4969201;28;20038;-63
2022/08/13 01:19:31;;;;;;;6.88;3.47;;;;;;;21.69;61.22;101764.13;4968904;28;20481;-64
2022/08/13 01:21:57;;;;;;;7.88;3.28;;;;;;;21.70;60.73;101768.53;4976834;28;20038;-63
2022/08/13 01:24:23;;;;;;;5.57;3.22;;;;;;;21.70;60.43;101770.34;4986891;28;20027;-64
2022/08/13 01:26:48;;;;;;;4.68;3.17;;;;;;;21.70;59.60;101771.19;4987153;28;20106;-64
2022/08/13 01:29:16;;;;;;;7.45;3.30;;;;;;;21.67;60.41;101776.78;4985080;28;20034;-63
2022/08/13 01:31:42;;;;;;;8.13;2.75;;;;;;;21.70;59.27;101773.00;4986547;28;20029;-63
2022/08/13 01:34:08;;;;;;;5.40;3.30;;;;;;;21.71;59.54;101774.75;4970063;28;20045;-63
2022/08/13 01:36:34;;;;;;;3.58;3.25;;;;;;;21.66;59.03;101780.41;4986943;28;20438;-63
2022/08/13 01:39:04;;;;;;;3.55;3.00;;;;;;;21.65;58.51;101775.16;4988199;28;20049;-63
2022/08/13 01:41:30;;;;;;;8.07;3.53;;;;;;;21.61;58.63;101779.00;4986854;28;20034;-63
2022/08/13 01:44:04;;;;;;;7.07;2.95;;;;;;;21.57;59.08;101783.72;4987044;28;20030;-64
2022/08/13 01:50:28;;;;;;;7.25;3.10;;;;;;;21.62;58.39;101781.59;4986834;28;20102;-63
2022/08/13 01:51:59;;;;;;;3.72;2.92;;;;;;;21.61;57.57;101771.81;4987979;28;20041;-63
2022/08/13 01:54:25;;;;;;;4.70;2.80;;;;;;;21.57;57.45;101773.84;4987992;28;20042;-62
2022/08/13 01:56:50;;;;;;;4.05;2.90;;;;;;;21.58;56.89;101777.38;4988415;28;20453;-63
2022/08/13 01:59:15;;;;;;;6.22;2.97;;;;;;;21.50;57.40;101771.66;4986357;28;20022;-63
2022/08/13 02:01:42;;;;;;;4.75;3.40;;;;;;;21.53;57.48;101771.47;4988009;28;20102;-63
2022/08/13 02:04:07;;;;;;;7.03;3.20;;;;;;;21.52;57.11;101777.81;4984028;28;20602;-64
2022/08/13 02:06:34;;;;;;;4.85;3.22;;;;;;;21.48;57.47;101782.50;4987486;28;20026;-62
2022/08/13 02:09:03;;;;;;;4.95;2.88;;;;;;;21.46;57.56;101779.91;4986258;28;20030;-63
2022/08/13 02:11:32;;;;;;;5.13;2.97;;;;;;;21.50;57.37;101777.03;4986058;28;20038;-63
2022/08/13 02:13:59;;;;;;;3.47;3.17;;;;;;;21.45;57.09;101777.31;4986677;28;20034;-63
2022/08/13 02:16:28;;;;;;;5.15;2.95;;;;;;;21.40;57.07;101779.47;4987621;28;20045;-63
2022/08/13 02:18:53;;;;;;;;;;;;;;;21.42;57.36;101775.72;4987547;28;20035;-63
2022/08/13 02:21:22;;;;;;;4.20;3.07;;;;;;;21.43;56.98;101779.28;4986691;28;20397;-62
2022/08/13 02:23:52;;;;;;;;;;;;;;;21.45;56.33;101770.16;4985357;28;20278;-63
2022/08/13 02:26:18;;;;;;;7.03;3.30;;;;;;;21.39;56.56;101781.28;4984894;28;19933;-62
2022/08/13 02:28:44;;;;;;;3.67;3.38;;;;;;;21.33;56.75;101779.00;4986347;28;20054;-64
2022/08/13 02:31:10;;;;;;;6.05;3.45;;;;;;;21.30;57.54;101772.03;4985071;28;20116;-63
2022/08/13 02:33:37;;;;;;;5.28;2.95;;;;;;;21.24;57.53;101776.91;4983703;28;20539;-63
2022/08/13 02:36:10;;;;;;;5.65;3.38;;;;;;;21.25;57.31;101786.69;4986789;28;20034;-63
2022/08/13 02:38:38;;;;;;;5.85;3.20;;;;;;;21.24;56.79;101787.63;4985310;28;20026;-64
2022/08/13 02:43:50;;;;;;;4.75;3.15;;;;;;;21.19;56.96;101780.75;4983862;28;20042;-62
2022/08/13 02:46:16;;;;;;;5.93;3.08;;;;;;;21.25;57.14;101784.00;4986266;28;20027;-63
2022/08/13 02:48:42;;;;;;;3.83;3.03;;;;;;;21.32;56.36;101777.28;4984300;28;20552;-62
2022/08/13 02:51:10;;;;;;;4.90;2.92;;;;;;;21.29;55.78;101783.72;4984982;28;20022;-62
2022/08/13 02:53:37;;;;;;;6.60;3.35;;;;;;;21.19;55.56;101783.44;4984193;28;20181;-62
2022/08/13 02:56:05;;;;;;;6.63;3.13;;;;;;;21.16;55.83;101786.31;4984926;28;20022;-63
2022/08/13 02:58:30;;;;;;;6.95;3.25;;;;;;;21.05;56.80;101775.41;4983755;28;20118;-63
2022/08/13 03:00:57;;;;;;;6.55;3.17;;;;;;;21.04;56.65;101781.75;4985385;28;20109;-63
2022/08/13 03:03:22;;;;;;;3.55;3.00;;;;;;;21.07;56.31;101781.56;4985279;28;20046;-62
2022/08/13 03:05:47;;;;;;;4.88;3.13;;;;;;;21.02;56.54;101780.97;4986473;28;20018;-62
2022/08/13 03:08:13;;;;;;;6.60;2.90;;;;;;;20.92;56.64;101780.72;4986561;28;20042;-62
2022/08/13 03:10:40;;;;;;;7.32;3.05;;;;;;;20.90;56.85;101778.13;4986241;28;20026;-62
2022/08/13 03:13:24;;;;;;;6.95;2.88;;;;;;;20.87;57.29;101780.97;4984313;28;20118;-62
2022/08/13 03:15:52;;;;;;;3.65;2.80;;;;;;;20.92;56.77;101780.72;4965782;28;20026;-63
2022/08/13 03:18:18;;;;;;;4.50;3.15;;;;;;;20.88;57.39;101780.00;4965812;28;20492;-63
2022/08/13 03:20:43;;;;;;;4.07;2.83;;;;;;;20.75;57.77;101771.00;4966256;28;20035;-62
2022/08/13 03:23:09;;;;;;;5.50;3.20;;;;;;;20.74;58.27;101772.81;4966720;28;20022;-62
2022/08/13 03:25:35;;;;;;;4.70;3.10;;;;;;;20.74;57.87;101780.00;4966556;28;20031;-63
2022/08/13 03:28:01;;;;;;;5.82;3.22;;;;;;;20.67;58.10;101779.50;4966438;28;20030;-62
2022/08/13 03:30:27;;;;;;;5.78;3.22;;;;;;;20.61;58.53;101775.41;4966167;28;20038;-63
2022/08/13 03:32:55;;;;;;;8.15;4.07;;;;;;;20.63;58.66;101783.34;4967158;28;20034;-62
2022/08/13 03:35:22;;;;;;;5.93;3.45;;;;;;;20.65;58.44;101779.59;4984000;28;20023;-64
2022/08/13 03:37:53;;;;;;;6.43;3.15;;;;;;;20.65;58.17;101778.78;4984224;28;20513;-63
2022/08/13 03:40:19;;;;;;;8.48;2.90;;;;;;;20.61;58.11;101782.56;4985071;28;20030;-62
2022/08/13 03:42:48;;;;;;;3.88;3.20;;;;;;;20.62;58.51;101781.63;4984685;28;20114;-63
2022/08/13 03:45:15;;;;;;;3.55;2.70;;;;;;;20.55;58.62;101778.47;4984558;28;20042;-63
2022/08/13 03:47:40;;;;;;;3.83;2.83;;;;;;;20.57;57.98;101787.28;4985437;28;20045;-63
2022/08/13 03:50:07;;;;;;;7.05;2.90;;;;;;;20.55;58.00;101781.13;4984520;28;20014;-63
2022/08/13 03:52:33;;;;;;;5.03;2.85;;;;;;;20.55;58.00;101781.13;4985387;28;20032;-63
2022/08/13 03:55:04;;;;;;;6.20;3.20;;;;;;;20.56;58.46;101780.19;4985703;28;20113;-62
2022/08/13 03:57:30;;;;;;;3.42;2.72;;;;;;;20.56;58.35;101777.53;4985392;28;20137;-63
2022/08/13 03:59:55;;;;;;;5.07;2.90;;;;;;;20.59;57.84;101774.66;4985220;28;20524;-63
2022/08/13 04:02:21;;;;;;;4.25;2.80;;;;;;;20.61;57.55;101770.06;4985768;28;20092;-63
2022/08/13 04:04:47;;;;;;;4.70;2.55;;;;;;;20.57;57.63;101773.88;4985243;28;20421;-63
2022/08/13 04:07:14;;;;;;;5.68;2.67;;;;;;;20.55;57.73;101770.44;4983867;28;20117;-63
2022/08/13 04:09:41;;;;;;;3.75;2.83;;;;;;;20.54;58.17;101776.75;4984650;28;20076;-63
2022/08/13 04:12:10;;;;;;;3.13;2.55;;;;;;;20.55;58.21;101773.97;4983843;28;20041;-64
2022/08/13 04:14:35;;;;;;;5.65;2.33;;;;;;;20.52;58.56;101778.66;4984565;28;20061;-63
2022/08/13 04:17:01;;;;;;;3.97;2.67;;;;;;;20.48;59.15;101777.13;4985575;28;20474;-63
2022/08/13 04:19:26;;;;;;;4.18;2.70;;;;;;;20.47;59.02;101770.94;4985314;28;20018;-63
2022/08/13 04:21:52;;;;;;;3.45;2.70;;;;;;;20.47;59.25;101772.72;4985841;28;20019;-63
2022/08/13 04:24:18;;;;;;;4.28;2.85;;;;;;;20.43;59.14;101770.25;4985480;28;20117;-63
2022/08/13 04:26:45;;;;;;;3.35;2.67;;;;;;;20.45;59.02;101771.03;4985220;28;20026;-63
2022/08/13 04:29:11;;;;;;;6.28;3.03;;;;;;;20.43;59.24;101772.91;4983261;28;20027;-63
2022/08/13 04:31:37;;;;;;;7.47;2.90;;;;;;;20.42;60.50;101771.22;4984691;28;20026;-63
2022/08/13 04:34:02;;;;;;;3.50;2.88;;;;;;;20.39;60.29;101774.06;4979737;28;20055;-63
2022/08/13 04:36:27;;;;;;;5.70;3.05;;;;;;;20.38;60.44;101774.16;4965184;28;20423;-62
2022/08/13 04:38:53;;;;;;;5.40;2.95;;;;;;;20.36;60.86;101779.59;4966128;28;20413;-63
2022/08/13 04:41:18;;;;;;;6.47;3.38;;;;;;;20.36;60.35;101776.94;4966139;28;20440;-62
2022/08/13 04:43:44;;;;;;;3.92;3.00;;;;;;;20.34;60.52;101768.13;4965289;28;20031;-62
2022/08/13 04:46:10;;;;;;;5.75;3.10;;;;;;;20.37;60.02;101775.97;4966073;28;20030;-63
2022/08/13 04:48:35;;;;;;;6.72;2.88;;;;;;;20.32;60.79;101770.03;4974686;28;20040;-64
2022/08/13 04:51:01;;;;;;;5.75;2.90;;;;;;;20.28;61.22;101777.38;4985089;28;20105;-62
2022/08/13 04:53:31;;;;;;;4.95;3.08;;;;;;;20.28;61.38;101772.03;4983787;28;20060;-62
2022/08/13 04:55:57;;;;;;;4.07;3.00;;;;;;;20.30;61.22;101775.50;4984118;28;20368;-62
2022/08/13 04:58:23;;;;;;;4.30;2.80;;;;;;;20.37;61.02;101778.63;4984732;28;20034;-62
2022/08/13 05:00:50;;;;;;;6.22;3.58;;;;;;;20.37;61.52;101773.28;4984566;28;20109;-63
2022/08/13 05:03:18;;;;;;;7.00;3.30;;;;;;;20.42;61.54;101776.56;4984848;28;20503;-61
2022/08/13 05:05:46;;;;;;;6.32;2.85;;;;;;;20.51;61.48;101776.94;4984079;28;20046;-63
2022/08/13 05:08:12;;;;;;;12.88;3.45;;;;;;;20.56;61.08;101782.88;4983810;28;20536;-63
2022/08/13 05:10:38;;;;;;;6.25;3.17;;;;;;;20.58;60.80;101772.91;4984478;28;20383;-62
2022/08/13 05:13:25;;;;;;;4.95;3.28;;;;;;;20.55;61.20;101778.47;4984234;28;20122;-62
2022/08/13 05:15:52;;;;;;;4.18;2.50;;;;;;;20.66;60.94;101777.81;4985281;28;20018;-63
2022/08/13 05:18:18;;;;;;;4.40;2.58;;;;;;;20.65;60.67;101776.94;4983704;28;20592;-63
2022/08/13 05:20:44;;;;;;;7.28;2.95;;;;;;;20.66;60.48;101775.13;4987425;28;20105;-62
2022/08/13 05:23:10;;;;;;;4.20;2.65;;;;;;;20.69;60.46;101775.81;4987372;28;20022;-62
2022/08/13 05:25:36;;;;;;;3.08;2.60;;;;;;;20.77;59.93;101777.16;4987201;28;20106;-63
2022/08/13 05:28:02;;;;;;;2.78;2.58;;;;;;;20.81;60.29;101781.34;4987849;28;20030;-62
2022/08/13 05:30:27;;;;;;;4.88;2.75;;;;;;;20.87;60.02;101780.97;4988367;28;20027;-63
2022/08/13 05:32:57;;;;;;;6.65;2.20;;;;;;;20.92;60.03;101780.72;4988775;28;20039;-62
2022/08/13 05:35:23;;;;;;;9.93;2.80;;;;;;;21.03;59.37;101780.00;4988542;28;20030;-62
2022/08/13 05:37:49;;;;;;;9.95;3.20;;;;;;;21.10;59.44;101789.38;4986503;28;20038;-62
2022/08/13 05:40:14;;;;;;;4.35;2.72;;;;;;;21.18;59.12;101783.53;4987926;28;20038;-63
2022/08/13 05:42:39;;;;;;;2.83;2.50;;;;;;;21.23;58.84;101775.19;4984299;28;20065;-63
2022/08/13 05:45:08;;;;;;;7.40;2.63;;;;;;;21.32;58.69;101780.84;4977023;28;20054;-64
2022/08/13 05:47:36;;;;;;;4.72;2.67;;;;;;;21.42;57.99;101785.56;4978583;28;20011;-63
2022/08/13 05:50:13;;;;;;;3.65;2.60;;;;;;;21.50;58.20;101785.94;4977261;28;20023;-63
2022/08/13 05:52:39;;;;;;;6.25;3.00;;;;;;;21.62;58.13;101781.59;4976441;28;20023;-64
2022/08/13 05:55:11;;;;;;;3.63;2.60;;;;;;;21.67;58.05;101779.44;4978051;28;20022;-62
2022/08/13 05:57:40;;;;;;;5.85;2.47;;;;;;;21.75;58.00;101780.75;4977727;28;20022;-62
2022/08/13 06:05:37;;;;;;;5.45;2.55;;;;;;;21.98;57.88;101781.94;4986914;28;20041;-63
2022/08/13 06:08:04;;;;;;;3.05;2.30;;;;;;;22.00;58.25;101782.69;4986881;28;20702;-63
2022/08/13 06:10:30;;;;;;;4.85;2.30;;;;;;;22.08;57.92;101779.47;4980599;28;20500;-64
2022/08/13 06:12:56;;;;;;;7.05;3.00;;;;;;;22.19;58.17;101779.59;4976275;28;20018;-64
2022/08/13 06:15:22;;;;;;;4.90;2.40;;;;;;;22.26;57.88;101772.00;4978882;28;20113;-64
2022/08/13 06:17:49;;;;;;;6.30;2.72;;;;;;;22.35;57.65;101773.16;4976328;28;20068;-64
2022/08/13 06:20:16;;;;;;;4.95;2.63;;;;;;;22.38;57.09;101782.84;4979491;28;20195;-64
2022/08/13 06:22:42;;;;;;;4.55;2.45;;;;;;;22.39;56.81;101785.41;4986280;28;20030;-65
2022/08/13 06:25:08;;;;;;;2.67;2.15;;;;;;;22.48;57.27;101781.22;4985775;28;20076;-64
2022/08/13 06:27:33;;;;;;;4.53;2.30;;;;;;;22.61;57.01;101783.97;4985130;28;20037;-64
2022/08/13 06:30:00;;;;;;;5.50;2.40;;;;;;;22.68;56.58;101781.69;4985798;28;20026;-63
2022/08/13 06:32:25;;;;;;;4.05;1.98;;;;;;;22.83;55.93;101787.78;4986027;28;20037;-65
2022/08/13 06:34:51;;;;;;;2.78;2.20;;;;;;;22.97;54.57;101789.50;4986266;28;20022;-64
2022/08/13 06:37:17;;;;;;;5.88;2.35;;;;;;;23.04;54.06;101785.38;4987024;28;20140;-63
2022/08/13 06:39:44;;;;;;;3.33;2.08;;;;;;;23.18;52.81;101787.06;4987017;28;20022;-62
2022/08/13 06:42:10;;;;;;;8.77;2.45;;;;;;;23.32;52.38;101785.19;4986117;28;20038;-62
2022/08/13 06:44:36;;;;;;;4.68;2.40;;;;;;;23.40;51.29;101790.91;4986479;28;20026;-63
2022/08/13 06:47:03;;;;;;;5.50;2.30;;;;;;;23.53;50.97;101795.34;4986032;28;20022;-63
2022/08/13 06:49:30;;;;;;;4.18;2.13;;;;;;;23.66;50.35;101785.38;4985738;28;20148;-62
2022/08/13 06:51:56;;;;;;;4.32;1.63;;;;;;;23.79;49.97;101787.16;4986659;28;20030;-62
2022/08/13 06:54:23;;;;;;;2.05;1.80;;;;;;;23.85;49.96;101789.41;4987154;28;20092;-64
2022/08/13 06:56:49;;;;;;;5.72;1.95;;;;;;;23.92;49.50;101793.34;4986854;28;20733;-61
2022/08/13 06:59:15;;;;;;;5.35;1.75;;;;;;;23.97;49.34;101793.00;4985005;28;20031;-61
2022/08/13 07:01:41;;;;;;;7.03;2.05;;;;;;;24.11;49.48;101794.63;4985106;28;20026;-62
2022/08/13 07:04:13;;;;;;;4.22;2.25;;;;;;;24.23;48.81;101799.06;4985088;28;20050;-61
2022/08/13 07:06:40;;;;;;;14.48;2.10;;;;;;;24.29;48.69;101796.91;4986289;28;20126;-62
2022/08/13 07:09:05;;;;;;;7.60;1.95;;;;;;;24.22;48.87;101791.13;4985591;28;20029;-62
2022/08/13 07:11:32;;;;;;;3.58;2.03;;;;;;;24.33;48.99;101790.28;4983434;28;20379;-61
2022/08/13 07:13:59;;;;;;;4.75;1.70;;;;;;;24.46;48.35;101785.66;4985647;28;20117;-63
2022/08/13 07:16:30;;;;;;;6.38;1.63;;;;;;;24.52;48.71;101780.75;4986216;28;20030;-62
2022/08/13 07:18:56;;;;;;;3.60;1.77;;;;;;;24.57;48.59;101784.81;4986090;28;20429;-62
2022/08/13 07:21:24;;;;;;;4.63;1.88;;;;;;;24.59;48.74;101784.69;4986684;28;20050;-61
2022/08/13 07:23:51;;;;;;;3.30;1.88;;;;;;;24.71;48.24;101790.94;4985150;28;20023;-61
2022/08/13 07:26:18;;;;;;;5.97;1.98;;;;;;;24.76;48.50;101782.47;4985000;28;20504;-62
2022/08/13 07:28:46;;;;;;;7.18;2.00;;;;;;;24.79;48.26;101795.69;4985102;28;20054;-61
2022/08/13 07:31:13;;;;;;;4.40;1.88;;;;;;;24.89;48.33;101788.63;4984889;28;20113;-61
2022/08/13 07:33:46;;;;;;;4.68;1.80;;;;;;;24.97;48.19;101786.19;4984762;28;20024;-62
2022/08/13 07:36:12;;;;;;;5.35;1.70;;;;;;;25.11;48.14;101784.22;4985625;28;20025;-61
2022/08/13 07:38:38;;;;;;;5.25;1.90;;;;;;;25.18;47.83;101784.53;4985604;28;20034;-62
2022/08/13 07:41:04;;;;;;;4.13;1.63;;;;;;;25.21;47.51;101787.00;4985950;28;20046;-61
2022/08/13 07:43:32;;;;;;;4.85;1.73;;;;;;;25.27;47.29;101791.03;4983308;28;20408;-61
2022/08/13 07:46:13;;;;;;;3.97;1.75;;;;;;;25.34;47.11;101785.00;4985695;28;20060;-61
2022/08/13 07:48:40;;;;;;;5.65;1.80;;;;;;;25.37;46.58;101786.59;4984476;28;20034;-61
2022/08/13 07:51:19;;;;;;;3.72;1.70;;;;;;;25.57;46.24;101793.03;4985424;28;20114;-61
2022/08/13 07:53:45;;;;;;;;;;;;;;;25.72;46.52;101796.31;4984691;28;20026;-62
2022/08/13 07:56:10;;;;;;;3.10;1.80;;;;;;;25.85;46.07;101806.06;4985043;28;19914;-61
2022/08/13 07:58:36;;;;;;;2.70;1.80;;;;;;;25.92;45.86;101801.88;4984551;28;20026;-62
2022/08/13 08:01:03;;;;;;;4.43;2.10;;;;;;;25.93;45.79;101797.31;4984368;28;20041;-62
2022/08/13 08:03:32;;;;;;;7.40;1.67;;;;;;;25.88;46.42;101800.41;4983676;28;20046;-62
2022/08/13 08:05:59;;;;;;;3.30;2.00;;;;;;;25.89;46.28;101799.44;4984611;28;20117;-62
2022/08/13 08:08:26;;;;;;;1.60;1.50;;;;;;;26.02;46.12;101806.47;4983343;28;20022;-62
2022/08/13 08:10:53;;;;;;;1.73;1.55;;;;;;;26.17;45.77;101802.47;4985224;28;20026;-62
2022/08/13 08:13:18;;;;;;;3.45;1.58;;;;;;;26.27;44.90;101816.03;4982382;28;20523;-62
2022/08/13 08:15:44;;;;;;;6.30;1.95;;;;;;;26.42;44.58;101804.91;4984693;28;20029;-62
2022/08/13 08:18:09;;;;;;;3.85;1.70;;;;;;;26.41;45.01;101801.38;4985036;28;20025;-62
2022/08/13 08:20:36;;;;;;;3.92;1.70;;;;;;;26.54;44.68;101811.09;4985134;28;20504;-62
2022/08/13 08:23:01;;;;;;;3.83;1.70;;;;;;;26.61;43.14;101815.00;4985086;28;20113;-62
2022/08/13 08:25:27;;;;;;;3.95;1.90;;;;;;;26.43;42.92;101810.19;4985290;28;20034;-62
2022/08/13 08:27:52;;;;;;;2.97;1.45;;;;;;;26.54;43.04;101797.56;4984722;28;20085;-62
2022/08/13 08:30:19;;;;;;;5.22;1.70;;;;;;;26.65;42.83;101802.91;4983602;28;20036;-61
2022/08/13 08:32:53;;;;;;;6.60;1.80;;;;;;;26.70;42.46;101794.41;4984781;28;20049;-62
2022/08/13 08:35:20;;;;;;;2.70;1.80;;;;;;;26.89;42.53;101804.44;4982079;28;20015;-61
2022/08/13 08:43:22;;;;;;;5.32;1.70;;;;;;;27.05;42.36;101808.47;4964197;28;20069;-61
2022/08/13 08:45:48;;;;;;;5.05;1.60;;;;;;;27.15;42.19;101803.94;4964431;28;20438;-61
2022/08/13 08:48:16;;;;;;;4.32;1.40;;;;;;;27.23;42.61;101809.53;4964227;28;20065;-61
2022/08/13 08:50:41;;;;;;;4.05;1.65;;;;;;;27.33;42.34;101801.44;4973034;28;20030;-61
2022/08/13 08:53:19;;;;;;;4.28;1.58;;;;;;;27.46;41.89;101811.13;4982554;28;20033;-61
2022/08/13 08:55:45;;;;;;;2.72;1.67;;;;;;;27.42;41.78;101813.25;4972345;28;20034;-61
2022/08/13 08:58:11;;;;;;;2.25;1.55;;;;;;;27.53;41.20;101811.41;4974571;28;20019;-61
2022/08/13 09:00:38;;;;;;;8.70;1.50;;;;;;;27.52;42.03;101812.41;4976732;28;20073;-60
2022/08/13 09:03:04;;;;;;;3.53;1.63;;;;;;;27.64;41.65;101808.59;4978722;28;20042;-60
2022/08/13 09:05:29;;;;;;;4.22;1.88;;;;;;;27.60;41.64;101812.59;4976063;28;20432;-60
2022/08/13 09:07:55;;;;;;;2.90;1.90;;;;;;;27.72;40.72;101807.94;4971999;28;20022;-62
2022/08/13 09:10:21;;;;;;;2.38;1.80;;;;;;;27.74;40.48;101814.91;4988216;28;20063;-60
2022/08/13 09:12:48;;;;;;;3.92;1.33;;;;;;;27.77;40.52;101808.34;4985142;28;20153;-61
2022/08/13 09:15:17;;;;;;;1.38;1.27;;;;;;;27.85;39.72;101810.34;4987262;28;20042;-61
2022/08/13 09:17:43;;;;;;;4.35;1.52;;;;;;;27.93;39.91;101807.75;4988117;28;20026;-60
2022/08/13 09:20:12;;;;;;;6.40;1.48;;;;;;;27.94;40.40;101809.47;4986880;28;20035;-60
2022/08/13 09:22:40;;;;;;;4.40;1.77;;;;;;;27.88;40.93;101804.63;4986470;28;20546;-60
2022/08/13 09:25:06;;;;;;;5.10;2.00;;;;;;;27.67;40.07;101802.06;4986827;28;20022;-61
2022/08/13 09:27:34;;;;;;;5.38;1.52;;;;;;;27.85;40.92;101799.50;4985607;28;20026;-61
2022/08/13 09:30:00;;;;;;;8.43;1.50;;;;;;;27.98;40.20;101800.06;4986711;28;20049;-62
2022/08/13 09:32:28;;;;;;;3.53;1.65;;;;;;;27.89;40.55;101803.63;4987448;28;20109;-60
2022/08/13 09:34:54;;;;;;;4.75;1.75;;;;;;;27.94;40.17;101798.66;4973753;28;20035;-60
2022/08/13 09:37:19;;;;;;;6.93;2.03;;;;;;;28.13;39.77;101799.59;4967810;28;20082;-62
2022/08/13 09:39:50;;;;;;;3.22;1.60;;;;;;;28.28;39.79;101797.28;4975035;28;20067;-61
2022/08/13 09:42:37;;;;;;;3.35;1.30;;;;;;;28.33;39.46;101800.47;4976446;28;20034;-61
2022/08/13 09:45:04;;;;;;;7.30;1.50;;;;;;;28.45;39.68;101795.72;4974117;28;20045;-62
2022/08/13 09:47:31;;;;;;;3.95;1.45;;;;;;;28.36;39.76;101792.00;4986491;28;20029;-61
2022/08/13 09:49:56;;;;;;;6.18;1.40;;;;;;;28.37;39.62;101803.72;4986166;28;20543;-61
2022/08/13 09:52:22;;;;;;;5.25;1.80;;;;;;;28.54;39.57;101793.13;4986513;28;20038;-61
2022/08/13 09:54:48;;;;;;;4.82;1.50;;;;;;;28.36;39.38;101797.44;4984567;28;20370;-60
2022/08/13 09:57:14;;;;;;;8.35;1.52;;;;;;;28.56;39.51;101796.53;4985741;28;20057;-61
2022/08/13 09:59:39;;;;;;;1.98;1.67;;;;;;;28.68;38.91;101792.63;4979230;28;20081;-61
2022/08/13 10:02:09;;;;;;;7.47;1.90;;;;;;;28.65;39.33;101790.19;4976556;28;20033;-60
2022/08/13 10:04:37;;;;;;;6.20;1.40;;;;;;;28.78;38.97;101786.31;4973704;28;20714;-61
2022/08/13 10:07:04;;;;;;;;;;;;;;;28.94;39.91;101781.13;4984743;28;20124;-61
2022/08/13 10:09:30;;;;;;;1.42;1.20;;;;;;;29.10;38.92;101776.88;4986044;28;20316;-60
2022/08/13 10:11:55;;;;;;;2.80;1.50;;;;;;;29.10;38.70;101771.44;4985632;28;20089;-62
2022/08/13 10:14:20;;;;;;;2.65;1.40;;;;;;;29.19;37.40;101770.53;4982955;28;20397;-61
2022/08/13 10:16:47;;;;;;;6.28;1.88;;;;;;;29.33;37.58;101768.28;4982965;28;20026;-60
2022/08/13 10:19:12;;;;;;;4.10;1.60;;;;;;;29.08;37.56;101768.03;4984837;28;20157;-60
2022/08/13 10:21:38;;;;;;;5.85;1.50;;;;;;;29.17;36.67;101763.56;4985676;28;20113;-60
2022/08/13 10:24:04;;;;;;;6.00;1.70;;;;;;;29.42;36.47;101761.94;4985948;28;20539;-60
2022/08/13 10:26:29;;;;;;;4.18;1.45;;;;;;;29.65;36.85;101764.22;4985663;28;20040;-60
2022/08/13 10:28:55;;;;;;;3.63;1.42;;;;;;;29.58;36.34;101763.97;4985290;28;20366;-60
2022/08/13 10:31:21;;;;;;;3.60;1.42;;;;;;;29.83;36.99;101757.91;4983484;28;20045;-61
2022/08/13 10:33:47;;;;;;;3.08;1.60;;;;;;;29.93;36.81;101760.50;4985092;28;20026;-62
2022/08/13 10:36:14;;;;;;;3.90;1.80;;;;;;;30.08;36.22;101758.94;4985416;28;20121;-61
2022/08/13 10:38:40;;;;;;;2.42;1.50;;;;;;;30.00;35.54;101759.72;4985563;28;20409;-61
2022/08/13 10:41:09;;;;;;;6.68;1.58;;;;;;;30.07;35.12;101757.19;4985689;28;20024;-60
2022/08/13 10:43:38;;;;;;;6.97;1.40;;;;;;;30.35;35.23;101748.06;4985505;28;20417;-61
2022/08/13 10:46:04;;;;;;;1.98;1.30;;;;;;;30.36;33.96;101760.63;4985577;28;20026;-61
2022/08/13 10:48:30;;;;;;;2.75;1.33;;;;;;;30.50;33.96;101756.47;4985016;28;20026;-61
2022/08/13 10:50:55;;;;;;;5.60;1.48;;;;;;;30.57;32.25;101751.22;4985559;28;20425;-61
2022/08/13 10:56:06;;;;;;;5.75;1.30;;;;;;;30.66;33.07;101747.53;4986218;28;20072;-61
2022/08/13 10:58:32;;;;;;;5.82;1.40;;;;;;;30.59;33.20;101750.06;4985395;28;20022;-61
2022/08/13 11:01:02;;;;;;;5.80;1.40;;;;;;;30.51;32.42;101740.00;4985942;28;20157;-61
2022/08/13 11:03:30;;;;;;;5.32;1.40;;;;;;;30.93;32.50;101742.88;4982603;28;20038;-61
2022/08/13 11:05:59;;;;;;;4.45;1.40;;;;;;;30.83;34.70;101743.03;4986437;28;20073;-61
2022/08/13 11:08:25;;;;;;;9.30;1.35;;;;;;;31.07;32.78;101735.09;4982803;28;20026;-61
2022/08/13 11:10:51;;;;;;;5.15;1.30;;;;;;;31.00;32.59;101741.19;4982833;28;20049;-62
2022/08/13 11:13:16;;;;;;;9.55;1.15;;;;;;;30.92;32.01;101740.31;4985631;28;20027;-61
2022/08/13 11:15:41;;;;;;;5.20;1.33;;;;;;;30.94;31.78;101741.84;4985579;28;20134;-61
2022/08/13 11:18:08;;;;;;;3.65;0.98;;;;;;;31.13;32.72;101740.72;4983946;28;20539;-60
2022/08/13 11:20:50;;;;;;;3.95;1.35;;;;;;;31.06;32.01;101738.84;4985405;28;20035;-60
2022/08/13 11:23:16;;;;;;;3.65;1.33;;;;;;;31.32;31.56;101729.66;4985408;28;20037;-60
2022/08/13 11:25:41;;;;;;;5.25;1.20;;;;;;;31.78;30.94;101729.19;4985147;28;20031;-60
2022/08/13 11:28:13;;;;;;;3.38;1.30;;;;;;;32.00;31.06;101721.34;4985501;28;20073;-60
2022/08/13 11:30:39;;;;;;;6.38;1.20;;;;;;;31.92;30.44;101716.75;4985129;28;20023;-59
2022/08/13 11:33:05;;;;;;;2.25;1.10;;;;;;;32.31;30.45;101714.25;4984047;28;20157;-60
2022/08/13 11:35:30;;;;;;;1.20;1.10;;;;;;;32.35;29.52;101716.47;4984949;28;20392;-62
2022/08/13 11:37:56;;;;;;;2.78;1.10;;;;;;;32.59;30.84;101719.31;4985190;28;20050;-61
2022/08/13 11:40:21;;;;;;;5.18;1.15;;;;;;;32.68;31.52;101715.47;4985340;28;20576;-60
2022/08/13 11:42:46;;;;;;;3.13;1.30;;;;;;;32.31;29.79;101715.13;4985219;28;20023;-60
2022/08/13 11:45:12;;;;;;;5.05;1.55;;;;;;;31.95;29.39;101716.41;4985298;28;20038;-61
2022/08/13 11:47:39;;;;;;;3.00;1.08;;;;;;;32.38;29.67;101709.78;4984424;28;20550;-61
2022/08/13 11:50:04;;;;;;;6.57;1.00;;;;;;;32.78;27.90;101709.81;4985126;28;20022;-62